Time;durP1;ratioP1;P1;durP2;ratioP2;P2;SDS_P1;SDS_P2;PMS_P1;PMS_P2;Temp;Humidity;BMP_temperature;BMP_pressure;BME280_temperature;BME280_humidity;BME280_pressure;Samples;Min_cycle;Max_cycle;Signal;HPM_P1;HPM_P2
2021/01/19 00:01:35;;;;;;;5.70;3.15;;;1.30;99.90;;;;;;5011707;28;20219;-86
2021/01/19 00:04:02;;;;;;;3.53;2.65;;;1.30;99.90;;;;;;5012308;28;20211;-86
2021/01/19 00:06:28;;;;;;;4.32;2.75;;;1.40;99.90;;;;;;5015182;28;20727;-86
2021/01/19 00:08:54;;;;;;;2.38;2.10;;;1.40;99.90;;;;;;5015386;28;20215;-86
2021/01/19 00:11:20;;;;;;;2.85;2.47;;;1.40;99.90;;;;;;5015199;28;20210;-86
2021/01/19 00:13:47;;;;;;;3.28;2.95;;;1.20;99.90;;;;;;5015222;28;20215;-86
2021/01/19 00:16:21;;;;;;;2.65;2.45;;;1.20;99.90;;;;;;5015205;28;20234;-86
2021/01/19 00:22:38;;;;;;;4.57;2.65;;;1.20;99.90;;;;;;5057890;28;20359;-87
2021/01/19 00:25:05;;;;;;;5.13;3.40;;;1.20;99.90;;;;;;5057577;28;20216;-87
2021/01/19 00:27:31;;;;;;;3.55;2.78;;;1.20;99.90;;;;;;5064560;28;20240;-87
2021/01/19 00:29:58;;;;;;;2.60;2.40;;;1.10;99.90;;;;;;5076890;28;20205;-87
2021/01/19 00:32:25;;;;;;;3.75;2.83;;;1.10;99.90;;;;;;5082440;28;20209;-87
2021/01/19 00:34:51;;;;;;;4.15;2.83;;;1.20;99.90;;;;;;5076882;28;20213;-86
2021/01/19 00:37:17;;;;;;;4.40;3.25;;;1.20;99.90;;;;;;5076187;28;20225;-87
2021/01/19 00:39:43;;;;;;;4.80;2.72;;;1.30;99.90;;;;;;5075953;28;20223;-87
2021/01/19 00:42:10;;;;;;;4.88;3.00;;;1.30;99.90;;;;;;5076149;28;20216;-87
2021/01/19 00:44:36;;;;;;;3.55;2.92;;;1.20;99.90;;;;;;5076008;28;20311;-86
2021/01/19 00:47:04;;;;;;;2.80;2.60;;;1.30;99.90;;;;;;5075932;28;20647;-87
2021/01/19 00:49:31;;;;;;;3.90;3.30;;;1.30;99.90;;;;;;5075768;28;20257;-87
2021/01/19 00:51:57;;;;;;;8.07;4.00;;;1.30;99.90;;;;;;5075889;28;20212;-87
2021/01/19 00:54:23;;;;;;;3.95;3.58;;;1.30;99.90;;;;;;5075841;28;20723;-86
2021/01/19 00:56:49;;;;;;;4.63;2.83;;;1.40;99.90;;;;;;5075870;28;20216;-86
2021/01/19 00:59:16;;;;;;;3.67;3.38;;;1.40;99.90;;;;;;5075774;28;20271;-86
2021/01/19 01:01:47;;;;;;;3.60;3.30;;;1.40;99.90;;;;;;5075616;28;20217;-86
2021/01/19 01:04:13;;;;;;;3.75;3.13;;;1.40;99.90;;;;;;5075396;28;20693;-87
2021/01/19 01:06:40;;;;;;;3.88;3.47;;;1.40;99.90;;;;;;5075818;28;20205;-86
2021/01/19 01:09:07;;;;;;;3.33;3.03;;;1.40;99.90;;;;;;5076058;28;20205;-86
2021/01/19 01:11:38;;;;;;;3.13;2.92;;;1.40;99.90;;;;;;5077123;28;20209;-86
2021/01/19 01:14:04;;;;;;;3.97;3.67;;;1.40;99.90;;;;;;5082896;28;20205;-86
2021/01/19 01:16:31;;;;;;;3.13;2.85;;;1.30;99.90;;;;;;5088370;28;20209;-86
2021/01/19 01:18:57;;;;;;;3.80;3.08;;;1.30;99.90;;;;;;5082615;28;20229;-86
2021/01/19 01:21:23;;;;;;;5.88;3.90;;;1.30;99.90;;;;;;5081303;28;20201;-87
2021/01/19 01:23:50;;;;;;;3.45;3.13;;;1.30;99.90;;;;;;5083240;28;20508;-86
2021/01/19 01:26:18;;;;;;;3.78;3.10;;;1.40;99.90;;;;;;5082950;28;20209;-87
2021/01/19 01:28:45;;;;;;;5.50;3.40;;;1.40;99.90;;;;;;5091027;28;20241;-86
2021/01/19 01:31:11;;;;;;;3.67;3.35;;;1.30;99.90;;;;;;5081310;28;20615;-86
2021/01/19 01:33:37;;;;;;;4.45;2.88;;;1.30;99.90;;;;;;5079247;28;20205;-86
2021/01/19 01:36:05;;;;;;;2.90;2.70;;;1.20;99.90;;;;;;5083901;28;20213;-86
2021/01/19 01:38:31;;;;;;;6.68;3.60;;;1.30;99.90;;;;;;5079201;28;20224;-86
2021/01/19 01:40:58;;;;;;;3.20;3.00;;;1.20;99.90;;;;;;5075585;28;20205;-86
2021/01/19 01:43:24;;;;;;;3.78;3.10;;;1.30;99.90;;;;;;5075176;28;20205;-87
2021/01/19 01:45:50;;;;;;;6.00;3.78;;;1.20;99.90;;;;;;5075957;28;20201;-86
2021/01/19 01:48:17;;;;;;;2.72;2.50;;;1.20;99.90;;;;;;5075670;28;20221;-86
2021/01/19 01:50:43;;;;;;;5.68;3.40;;;1.20;99.90;;;;;;5076013;28;20259;-86
2021/01/19 01:53:09;;;;;;;4.15;3.35;;;1.20;99.90;;;;;;5075682;28;20209;-86
2021/01/19 01:55:36;;;;;;;3.80;3.55;;;1.20;99.90;;;;;;5076370;28;20205;-86
2021/01/19 01:58:03;;;;;;;3.50;3.20;;;1.20;99.90;;;;;;5076605;28;20282;-86
2021/01/19 02:00:30;;;;;;;4.22;3.50;;;1.10;99.90;;;;;;5078112;28;20625;-86
2021/01/19 02:02:58;;;;;;;3.25;2.95;;;1.10;99.90;;;;;;5079047;28;20205;-86
2021/01/19 02:05:25;;;;;;;3.72;3.42;;;1.00;99.90;;;;;;5080090;28;20616;-86
2021/01/19 02:08:15;;;;;;;3.65;3.35;;;1.00;99.90;;;;;;5080259;28;20225;-86
2021/01/19 02:10:52;;;;;;;2.60;2.40;;;1.00;99.90;;;;;;5079056;28;20653;-86
2021/01/19 02:13:28;;;;;;;4.28;2.80;;;0.90;99.90;;;;;;5078500;28;20299;-86
2021/01/19 02:16:03;;;;;;;4.60;3.15;;;0.90;99.90;;;;;;5079246;28;20204;-86
2021/01/19 02:18:40;;;;;;;3.72;3.40;;;0.90;99.90;;;;;;5079751;28;20620;-86
2021/01/19 02:21:54;;;;;;;5.30;3.15;;;0.90;99.90;;;;;;5080257;28;20578;-86
2021/01/19 02:24:31;;;;;;;3.50;3.15;;;1.00;99.90;;;;;;5069707;28;20217;-86
2021/01/19 02:27:30;;;;;;;3.05;1.95;;;1.00;99.90;;;;;;5080324;28;20250;-86
2021/01/19 02:30:19;;;;;;;2.40;2.28;;;0.90;99.90;;;;;;5081645;28;20201;-85
2021/01/19 02:32:59;;;;;;;3.63;3.28;;;0.90;99.90;;;;;;5082212;28;20832;-86
2021/01/19 02:35:30;;;;;;;3.05;2.30;;;0.80;99.90;;;;;;5081934;28;20190;-86
2021/01/19 02:38:02;;;;;;;3.30;3.00;;;0.90;99.90;;;;;;5084130;28;20221;-87
2021/01/19 02:40:29;;;;;;;3.28;3.00;;;0.90;99.90;;;;;;5082728;28;20186;-87
2021/01/19 02:43:09;;;;;;;3.85;2.17;;;0.90;99.90;;;;;;5084782;28;20226;-86
2021/01/19 02:45:35;;;;;;;2.83;2.65;;;1.00;99.90;;;;;;5084607;28;20194;-86
2021/01/19 02:48:04;;;;;;;3.45;3.20;;;1.00;99.90;;;;;;5084706;28;20268;-85
2021/01/19 02:50:30;;;;;;;4.07;2.95;;;1.00;99.90;;;;;;5083377;28;20213;-86
2021/01/19 02:52:58;;;;;;;2.35;2.25;;;1.10;99.90;;;;;;5082272;28;20209;-85
2021/01/19 02:55:25;;;;;;;2.75;2.55;;;1.00;99.90;;;;;;5082778;28;20216;-85
2021/01/19 02:58:11;;;;;;;2.60;2.40;;;1.10;99.90;;;;;;5082246;28;20229;-86
2021/01/19 03:00:47;;;;;;;2.53;2.33;;;1.20;99.90;;;;;;5081608;28;20189;-86
2021/01/19 03:03:16;;;;;;;1.77;1.67;;;1.20;99.90;;;;;;5081234;28;20192;-86
2021/01/19 03:05:44;;;;;;;3.40;3.10;;;1.30;99.90;;;;;;5081115;28;20209;-85
2021/01/19 03:08:12;;;;;;;4.40;2.40;;;1.30;99.90;;;;;;5080737;28;20220;-86
2021/01/19 03:10:41;;;;;;;3.90;3.50;;;1.40;99.90;;;;;;5080448;28;20215;-86
2021/01/19 03:13:12;;;;;;;2.92;2.63;;;1.40;99.90;;;;;;5079498;28;20255;-86
2021/01/19 03:15:39;;;;;;;3.72;2.50;;;1.40;99.90;;;;;;5079084;28;20209;-86
2021/01/19 03:18:05;;;;;;;2.65;2.45;;;1.50;99.90;;;;;;5078227;28;20233;-86
2021/01/19 03:20:32;;;;;;;3.55;3.22;;;1.50;99.90;;;;;;5077904;28;20209;-86
2021/01/19 03:22:59;;;;;;;2.95;2.30;;;1.60;99.90;;;;;;5079334;28;20213;-86
2021/01/19 03:25:25;;;;;;;2.50;2.30;;;1.60;99.90;;;;;;5085849;28;20201;-85
2021/01/19 03:27:52;;;;;;;3.38;2.40;;;1.60;99.90;;;;;;5084715;28;20321;-86
2021/01/19 03:30:19;;;;;;;2.80;2.60;;;1.60;99.90;;;;;;5084489;28;20219;-86
2021/01/19 03:32:45;;;;;;;2.70;2.33;;;1.60;99.90;;;;;;5087923;28;20215;-86
2021/01/19 03:35:12;;;;;;;3.53;2.60;;;1.60;99.90;;;;;;5091885;28;20201;-86
2021/01/19 03:37:39;;;;;;;3.05;2.67;;;1.60;99.90;;;;;;5087264;28;20469;-87
2021/01/19 03:40:06;;;;;;;2.58;2.38;;;1.70;99.90;;;;;;5086793;28;20743;-87
2021/01/19 03:42:32;;;;;;;3.50;2.72;;;1.70;99.90;;;;;;5092383;28;20201;-86
2021/01/19 03:44:59;;;;;;;2.75;2.25;;;1.70;99.90;;;;;;5090816;28;20209;-87
2021/01/19 03:47:25;;;;;;;3.78;2.42;;;1.80;99.90;;;;;;5087868;28;20225;-86
2021/01/19 03:49:51;;;;;;;3.78;2.50;;;1.80;99.90;;;;;;5085191;28;20569;-86
2021/01/19 03:52:17;;;;;;;6.10;2.15;;;1.80;99.90;;;;;;5080019;28;20212;-86
2021/01/19 03:54:44;;;;;;;2.03;1.83;;;1.80;99.90;;;;;;5077415;28;20615;-86
2021/01/19 03:57:11;;;;;;;2.95;2.70;;;1.90;99.90;;;;;;5077312;28;20873;-86
2021/01/19 03:59:37;;;;;;;4.57;3.13;;;1.90;99.90;;;;;;5077756;28;20221;-86
2021/01/19 04:02:03;;;;;;;2.10;1.73;;;1.90;99.90;;;;;;5077504;28;20200;-86
2021/01/19 04:04:29;;;;;;;2.97;2.67;;;1.90;99.90;;;;;;5079811;28;20205;-86
2021/01/19 04:06:55;;;;;;;2.50;2.33;;;1.90;99.90;;;;;;5077375;28;20232;-86
2021/01/19 04:09:22;;;;;;;3.33;2.42;;;1.80;99.90;;;;;;5077269;28;20582;-87
2021/01/19 04:11:49;;;;;;;3.35;3.15;;;1.80;99.90;;;;;;5077158;28;20216;-86
2021/01/19 04:14:15;;;;;;;3.10;2.47;;;1.80;99.90;;;;;;5077548;28;20210;-86
2021/01/19 04:16:41;;;;;;;3.03;2.20;;;1.70;99.90;;;;;;5077434;28;20273;-86
2021/01/19 04:19:07;;;;;;;7.00;2.70;;;1.70;99.90;;;;;;5077341;28;20229;-86
2021/01/19 04:21:34;;;;;;;3.80;2.35;;;1.70;99.90;;;;;;5077448;28;20201;-86
2021/01/19 04:24:00;;;;;;;2.05;1.95;;;1.70;99.90;;;;;;5077339;28;20209;-86
2021/01/19 04:26:26;;;;;;;3.00;2.50;;;1.70;99.90;;;;;;5077563;28;20212;-86
2021/01/19 04:28:53;;;;;;;4.47;2.97;;;1.70;99.90;;;;;;5077298;28;20225;-86
2021/01/19 04:31:20;;;;;;;4.00;2.85;;;1.70;99.90;;;;;;5076989;28;20596;-87
2021/01/19 04:33:46;;;;;;;2.13;2.03;;;1.70;99.90;;;;;;5077124;28;20212;-87
2021/01/19 04:36:12;;;;;;;2.72;2.00;;;1.70;99.90;;;;;;5077294;28;20216;-86
2021/01/19 04:38:38;;;;;;;3.42;2.67;;;1.70;99.90;;;;;;5077361;28;20229;-86
2021/01/19 04:41:07;;;;;;;3.03;2.72;;;1.70;99.90;;;;;;5077331;28;20212;-86
2021/01/19 04:43:33;;;;;;;3.45;2.83;;;1.60;99.90;;;;;;5077119;28;20258;-86
2021/01/19 04:46:03;;;;;;;2.47;2.38;;;1.60;99.90;;;;;;5077789;28;20205;-87
2021/01/19 04:48:30;;;;;;;5.45;3.08;;;1.60;99.90;;;;;;5076690;28;20236;-86
2021/01/19 04:50:58;;;;;;;2.60;2.40;;;1.60;99.90;;;;;;5076325;28;20573;-86
2021/01/19 04:53:29;;;;;;;7.15;2.95;;;1.60;99.90;;;;;;5076999;28;20216;-86
2021/01/19 04:56:02;;;;;;;3.30;3.05;;;1.60;99.90;;;;;;5076632;28;20587;-86
2021/01/19 04:58:30;;;;;;;2.33;2.20;;;1.50;99.90;;;;;;5076501;28;20582;-86
2021/01/19 05:01:07;;;;;;;4.00;2.83;;;1.50;99.90;;;;;;5076656;28;20209;-87
2021/01/19 05:03:41;;;;;;;4.43;2.28;;;1.50;99.90;;;;;;5076527;28;20655;-86
2021/01/19 05:06:47;;;;;;;2.63;2.42;;;1.50;99.90;;;;;;5077280;28;20204;-86
2021/01/19 05:09:21;;;;;;;3.20;2.42;;;1.40;99.90;;;;;;5058672;28;20681;-86
2021/01/19 05:11:50;;;;;;;3.55;2.80;;;1.40;99.90;;;;;;5076844;28;20220;-86
2021/01/19 05:14:20;;;;;;;3.72;2.75;;;1.40;99.90;;;;;;5076430;28;20215;-86
2021/01/19 05:16:49;;;;;;;3.13;2.85;;;1.30;99.90;;;;;;5076243;28;20209;-87
2021/01/19 05:19:20;;;;;;;2.55;2.38;;;1.30;99.90;;;;;;5076377;28;20210;-86
2021/01/19 05:21:48;;;;;;;2.50;2.40;;;1.30;99.90;;;;;;5076416;28;20559;-87
2021/01/19 05:24:14;;;;;;;6.22;2.90;;;1.30;99.90;;;;;;5076243;28;20736;-87
2021/01/19 05:26:42;;;;;;;3.28;2.30;;;1.20;99.90;;;;;;5076847;28;20287;-87
2021/01/19 05:29:08;;;;;;;2.83;2.58;;;1.20;99.90;;;;;;5077053;28;20217;-86
2021/01/19 05:31:35;;;;;;;3.67;3.38;;;1.10;99.90;;;;;;5077124;28;20604;-87
2021/01/19 05:34:11;;;;;;;3.63;2.90;;;1.10;99.90;;;;;;5077104;28;20608;-87
2021/01/19 05:36:43;;;;;;;3.50;2.90;;;1.10;99.90;;;;;;5076605;28;20194;-86
2021/01/19 05:39:12;;;;;;;3.83;3.58;;;1.00;99.90;;;;;;5077094;28;20236;-85
2021/01/19 05:41:41;;;;;;;3.92;3.63;;;1.00;99.90;;;;;;5077118;28;20213;-85
2021/01/19 05:44:13;;;;;;;3.33;2.83;;;1.00;99.90;;;;;;5077225;28;20293;-85
2021/01/19 05:46:43;;;;;;;4.80;2.80;;;1.00;99.90;;;;;;5076665;28;20201;-85
2021/01/19 05:49:15;;;;;;;2.50;2.30;;;1.00;99.90;;;;;;5077040;28;20678;-85
2021/01/19 05:51:43;;;;;;;2.95;2.75;;;0.90;99.90;;;;;;5077621;28;20220;-85
2021/01/19 05:54:19;;;;;;;2.80;2.35;;;0.90;99.90;;;;;;5077839;28;20209;-86
2021/01/19 05:56:48;;;;;;;3.13;2.92;;;0.90;99.90;;;;;;5076637;28;20188;-86
2021/01/19 05:59:34;;;;;;;8.30;2.65;;;1.00;99.90;;;;;;5076572;28;20225;-85
2021/01/19 06:02:02;;;;;;;3.78;2.60;;;1.00;99.90;;;;;;5076386;28;20201;-86
2021/01/19 06:04:35;;;;;;;4.88;2.95;;;1.00;99.90;;;;;;5078146;28;20262;-86
2021/01/19 06:07:02;;;;;;;2.55;2.33;;;1.00;99.90;;;;;;5077808;28;20221;-85
2021/01/19 06:09:29;;;;;;;2.53;2.33;;;1.10;99.90;;;;;;5079055;28;20205;-86
2021/01/19 06:11:57;;;;;;;4.45;3.25;;;1.00;99.90;;;;;;5079013;28;20619;-86
2021/01/19 06:14:24;;;;;;;4.82;3.90;;;1.00;99.90;;;;;;5079724;28;20208;-86
2021/01/19 06:16:50;;;;;;;5.75;3.08;;;0.90;99.90;;;;;;5079098;28;20205;-85
2021/01/19 06:19:27;;;;;;;3.35;3.05;;;1.00;99.90;;;;;;5078272;28;20701;-86
2021/01/19 06:21:54;;;;;;;4.00;2.78;;;1.00;99.90;;;;;;5077872;28;20212;-86
2021/01/19 06:24:31;;;;;;;2.20;2.00;;;0.90;99.90;;;;;;5078277;28;20209;-87
2021/01/19 06:26:58;;;;;;;2.03;1.92;;;0.80;99.90;;;;;;5078833;28;20225;-87
2021/01/19 06:29:24;;;;;;;3.40;2.95;;;0.80;99.90;;;;;;5079039;28;20204;-87
2021/01/19 06:31:51;;;;;;;2.88;2.42;;;0.80;99.90;;;;;;5079176;28;20643;-86
2021/01/19 06:34:35;;;;;;;4.80;2.60;;;0.80;99.90;;;;;;5078311;28;20216;-87
2021/01/19 06:37:03;;;;;;;2.63;2.42;;;0.80;99.90;;;;;;5077776;28;20229;-87
2021/01/19 06:39:35;;;;;;;5.20;3.00;;;0.80;99.90;;;;;;5078188;28;20225;-85
2021/01/19 06:42:09;;;;;;;3.00;2.70;;;0.80;99.90;;;;;;5079118;28;20200;-86
2021/01/19 06:44:39;;;;;;;2.95;2.75;;;0.90;99.90;;;;;;5079422;28;20579;-86
2021/01/19 06:47:06;;;;;;;2.45;2.22;;;0.90;99.90;;;;;;5079534;28;20216;-86
2021/01/19 06:49:34;;;;;;;3.85;2.83;;;0.80;99.90;;;;;;5080756;28;20230;-86
2021/01/19 06:52:06;;;;;;;3.60;2.70;;;0.80;99.90;;;;;;5080678;28;20197;-86
2021/01/19 06:54:42;;;;;;;3.72;3.42;;;0.80;99.90;;;;;;5080842;28;20629;-87
2021/01/19 06:57:30;;;;;;;4.18;3.17;;;0.70;99.90;;;;;;5080783;28;20233;-88
2021/01/19 07:00:08;;;;;;;3.15;2.13;;;0.70;99.90;;;;;;5080696;28;20215;-86
2021/01/19 07:02:36;;;;;;;2.40;2.20;;;0.60;99.90;;;;;;5079537;28;20208;-87
2021/01/19 07:05:11;;;;;;;2.45;2.30;;;0.60;99.90;;;;;;5080674;28;20201;-87
2021/01/19 07:07:46;;;;;;;3.97;3.63;;;0.70;99.90;;;;;;5080463;28;20248;-87
2021/01/19 07:10:14;;;;;;;4.03;2.72;;;0.70;99.90;;;;;;5080397;28;20212;-87
2021/01/19 07:13:00;;;;;;;3.15;2.85;;;0.60;99.90;;;;;;5080722;28;20265;-87
2021/01/19 07:16:01;;;;;;;3.65;3.35;;;0.60;99.90;;;;;;5082937;28;20670;-85
2021/01/19 07:18:43;;;;;;;6.38;2.95;;;0.60;99.90;;;;;;5082633;28;20686;-87
2021/01/19 07:21:11;;;;;;;2.90;2.53;;;0.60;99.90;;;;;;5086472;28;20190;-87
2021/01/19 07:24:16;;;;;;;2.85;2.65;;;0.60;99.90;;;;;;5086592;28;20211;-86
2021/01/19 07:26:45;;;;;;;4.03;3.00;;;0.60;99.90;;;;;;5085286;28;20192;-86
2021/01/19 07:29:11;;;;;;;3.25;2.95;;;0.60;99.90;;;;;;5084900;28;20231;-86
2021/01/19 07:31:38;;;;;;;4.28;3.88;;;0.50;99.90;;;;;;5084766;28;20379;-86
2021/01/19 07:34:05;;;;;;;2.67;2.47;;;0.60;99.90;;;;;;5084590;28;20197;-86
2021/01/19 07:36:32;;;;;;;2.90;2.70;;;0.60;99.90;;;;;;5082738;28;20209;-86
2021/01/19 07:38:59;;;;;;;5.07;3.08;;;0.60;99.90;;;;;;5082809;28;20243;-86
2021/01/19 08:06:48;;;;;;;3.03;2.72;;;1.10;99.90;;;;;;5374185;22;20239;-81
2021/01/19 08:09:20;;;;;;;4.07;3.80;;;1.20;99.90;;;;;;5040799;28;20203;-81
2021/01/19 08:12:41;;;;;;;6.18;3.70;;;1.40;99.90;;;;;;5040191;28;20285;-81
2021/01/19 08:15:25;;;;;;;5.55;4.07;;;1.50;99.90;;;;;;5040596;28;20201;-82
2021/01/19 08:17:57;;;;;;;4.18;2.85;;;1.60;99.90;;;;;;5039776;28;20293;-82
2021/01/19 08:48:18;;;;;;;3.10;2.85;;;2.30;99.90;;;;;;4870998;29;20741;-85
2021/01/19 08:54:33;;;;;;;3.85;3.55;;;2.50;99.90;;;;;;4901829;29;20246;-87
2021/01/19 08:57:03;;;;;;;3.50;3.20;;;2.50;99.90;;;;;;4916790;28;20811;-87
2021/01/19 09:05:41;;;;;;;2.95;2.75;;;2.70;99.90;;;;;;4930690;29;20223;-86
2021/01/19 09:08:32;;;;;;;;;;;;;;;;;;;;;
2021/01/19 09:11:23;;;;;;;4.90;3.85;;;2.80;99.90;;;;;;5021118;28;20204;-85
2021/01/19 09:14:31;;;;;;;3.55;3.10;;;2.70;99.90;;;;;;5018475;28;20211;-86
2021/01/19 09:19:44;;;;;;;4.70;3.42;;;2.80;99.90;;;;;;5016908;28;20229;-85
2021/01/19 09:22:29;;;;;;;4.15;3.70;;;2.90;99.90;;;;;;5024711;28;20218;-85
2021/01/19 09:24:56;;;;;;;4.65;2.78;;;2.90;99.90;;;;;;5019866;28;20210;-85
2021/01/19 09:27:45;;;;;;;4.65;3.38;;;3.00;99.90;;;;;;5018130;28;20228;-86
2021/01/19 09:30:35;;;;;;;4.32;3.20;;;3.10;99.90;;;;;;5017648;28;20199;-86
2021/01/19 09:33:20;;;;;;;;;;;;;;;;;;;;;
2021/01/19 09:36:18;;;;;;;4.65;3.13;;;3.20;99.90;;;;;;4954479;28;20270;-85
2021/01/19 09:38:50;;;;;;;4.68;2.97;;;3.10;99.90;;;;;;5001630;28;20231;-83
2021/01/19 09:41:27;;;;;;;3.47;3.08;;;3.20;99.90;;;;;;5023905;28;20201;-85
2021/01/19 09:44:24;;;;;;;4.05;3.30;;;3.20;99.90;;;;;;5022120;28;20206;-86
2021/01/19 09:57:03;;;;;;;3.10;2.80;;;3.20;99.90;;;;;;4844800;29;20309;-84
2021/01/19 10:03:32;;;;;;;3.88;2.90;;;3.20;99.90;;;;;;4770644;30;20738;-86
2021/01/19 10:06:06;;;;;;;3.13;2.83;;;3.20;99.90;;;;;;4846362;28;20231;-85
2021/01/19 10:08:47;;;;;;;3.42;2.70;;;3.30;99.90;;;;;;5010148;28;20246;-85
2021/01/19 10:15:03;;;;;;;3.15;2.85;;;3.30;99.90;;;;;;4976405;28;20205;-86
2021/01/19 10:17:34;;;;;;;5.63;3.30;;;3.40;99.90;;;;;;5021395;28;20223;-85
2021/01/19 10:20:13;;;;;;;3.78;3.30;;;3.30;99.90;;;;;;5017812;28;20716;-85
2021/01/19 10:22:45;;;;;;;4.07;3.65;;;3.40;99.90;;;;;;5015424;28;20206;-86
2021/01/19 10:32:00;;;;;;;4.45;3.63;;;3.50;99.90;;;;;;4938930;28;20582;-86
2021/01/19 10:34:53;;;;;;;4.55;2.40;;;3.50;99.90;;;;;;5017076;28;20206;-88
2021/01/19 10:37:36;;;;;;;3.95;3.42;;;3.50;99.90;;;;;;5008980;28;20325;-84
2021/01/19 10:40:26;;;;;;;3.97;3.17;;;3.50;99.90;;;;;;5030636;28;20234;-84
2021/01/19 10:59:49;;;;;;;4.38;3.00;;;3.60;99.90;;;;;;4976959;28;20284;-84
2021/01/19 11:02:30;;;;;;;2.70;2.50;;;3.60;99.90;;;;;;4982697;28;20236;-87
2021/01/19 11:05:05;;;;;;;5.75;2.90;;;3.60;99.90;;;;;;5018013;28;20214;-86
2021/01/19 11:07:32;;;;;;;3.42;3.10;;;3.60;99.90;;;;;;5017568;28;20750;-85
2021/01/19 11:10:04;;;;;;;5.30;3.72;;;3.70;99.90;;;;;;5019004;28;20202;-85
2021/01/19 11:12:30;;;;;;;4.65;3.25;;;3.70;99.90;;;;;;5017517;28;20204;-86
2021/01/19 11:15:17;;;;;;;4.10;2.85;;;3.70;99.90;;;;;;5017591;28;20207;-86
2021/01/19 11:17:57;;;;;;;3.58;3.17;;;3.80;99.90;;;;;;5018225;28;20673;-86
2021/01/19 11:20:39;;;;;;;4.35;2.83;;;3.90;99.90;;;;;;5016955;28;20231;-86
2021/01/19 11:40:33;;;;;;;4.53;3.08;;;4.10;99.90;;;;;;5051970;28;20261;-86
2021/01/19 11:48:05;;;;;;;3.42;3.05;;;4.20;99.90;;;;;;5052474;28;20223;-83
2021/01/19 11:50:32;;;;;;;3.35;3.03;;;4.20;99.90;;;;;;5053397;28;20227;-83
2021/01/19 11:52:58;;;;;;;4.15;2.88;;;4.20;99.90;;;;;;5054872;28;20232;-83
2021/01/19 11:55:25;;;;;;;3.20;2.72;;;4.20;99.90;;;;;;5070565;28;20190;-84
2021/01/19 11:57:51;;;;;;;3.55;2.47;;;4.20;99.90;;;;;;5070766;28;20233;-86
2021/01/19 12:00:23;;;;;;;9.55;4.30;;;4.20;99.90;;;;;;5062125;28;20231;-87
2021/01/19 12:02:51;;;;;;;2.05;1.92;;;4.10;99.90;;;;;;5060699;28;20290;-86
2021/01/19 12:05:17;;;;;;;3.65;2.80;;;4.10;99.90;;;;;;5060405;28;20209;-86
2021/01/19 12:07:44;;;;;;;3.45;3.15;;;4.00;99.90;;;;;;5063881;28;20238;-85
2021/01/19 12:10:10;;;;;;;3.70;2.72;;;4.00;99.90;;;;;;5062373;28;20203;-85
2021/01/19 12:12:37;;;;;;;6.57;3.50;;;4.00;99.90;;;;;;5062226;28;20261;-84
2021/01/19 12:15:06;;;;;;;3.10;2.78;;;4.10;99.90;;;;;;5062343;28;20198;-85
2021/01/19 12:17:32;;;;;;;4.25;3.85;;;4.00;99.90;;;;;;5061937;28;20234;-84
2021/01/19 12:19:59;;;;;;;4.57;2.75;;;4.00;99.90;;;;;;5061994;28;20248;-84
2021/01/19 12:22:25;;;;;;;5.30;4.22;;;4.00;99.90;;;;;;5064666;28;20208;-84
2021/01/19 12:24:51;;;;;;;3.28;3.08;;;4.10;99.90;;;;;;5062714;28;20214;-84
2021/01/19 12:27:18;;;;;;;3.05;2.85;;;4.20;99.90;;;;;;5062124;28;20253;-86
2021/01/19 12:29:45;;;;;;;3.20;2.90;;;4.10;99.90;;;;;;5063767;28;20236;-86
2021/01/19 12:32:16;;;;;;;3.25;3.05;;;4.10;99.90;;;;;;5061827;28;20245;-87
2021/01/19 12:34:44;;;;;;;3.30;3.00;;;4.10;99.90;;;;;;5060548;28;20214;-86
2021/01/19 13:09:37;;;;;;;5.70;3.80;;;4.20;99.90;;;;;;4896755;29;20227;-86
2021/01/19 13:14:50;;;;;;;3.10;2.70;;;4.20;99.90;;;;;;5015839;28;20221;-86
2021/01/19 13:17:18;;;;;;;2.60;1.95;;;4.10;99.90;;;;;;5064362;28;20227;-86
2021/01/19 13:19:44;;;;;;;2.60;2.35;;;4.20;99.90;;;;;;5067734;28;20226;-85
2021/01/19 13:22:12;;;;;;;2.58;2.00;;;4.20;99.90;;;;;;5067315;28;20210;-86
2021/01/19 13:24:41;;;;;;;4.07;3.40;;;4.20;99.90;;;;;;5066413;28;20198;-86
2021/01/19 13:27:08;;;;;;;3.65;3.00;;;4.30;99.90;;;;;;5064785;28;20241;-86
2021/01/19 13:29:34;;;;;;;2.30;1.92;;;4.30;99.90;;;;;;5065253;28;20198;-85
2021/01/19 13:32:01;;;;;;;2.63;1.75;;;4.40;99.90;;;;;;5067840;28;20207;-86
2021/01/19 13:34:27;;;;;;;1.88;1.63;;;4.30;99.90;;;;;;5068375;28;20209;-85
2021/01/19 13:36:54;;;;;;;2.13;1.98;;;4.40;99.90;;;;;;5066521;28;20254;-85
2021/01/19 13:39:21;;;;;;;1.42;1.30;;;4.40;99.90;;;;;;5066654;28;20267;-85
2021/01/19 13:41:52;;;;;;;1.25;1.10;;;4.40;99.90;;;;;;5068751;28;20255;-85
2021/01/19 13:44:25;;;;;;;1.55;1.45;;;4.40;99.90;;;;;;5068596;28;20218;-85
2021/01/19 13:46:52;;;;;;;1.80;1.70;;;4.40;99.90;;;;;;5068737;28;20217;-85
2021/01/19 13:49:19;;;;;;;5.07;2.67;;;4.50;99.90;;;;;;5070564;28;20209;-84
2021/01/19 13:51:45;;;;;;;3.80;1.83;;;4.40;99.90;;;;;;5063974;28;20229;-87
2021/01/19 13:54:14;;;;;;;2.58;1.23;;;4.50;99.90;;;;;;5060484;28;20252;-85
2021/01/19 13:56:42;;;;;;;1.63;1.52;;;4.50;99.90;;;;;;5054148;28;20215;-85
2021/01/19 13:59:09;;;;;;;3.80;1.65;;;4.50;99.90;;;;;;5046769;28;20247;-84
2021/01/19 14:01:46;;;;;;;4.57;2.35;;;4.60;99.90;;;;;;5043409;28;20215;-85
2021/01/19 14:04:12;;;;;;;1.70;1.20;;;4.60;99.90;;;;;;5053398;28;20267;-84
2021/01/19 14:06:41;;;;;;;3.63;2.17;;;4.60;99.90;;;;;;5045097;28;20215;-87
2021/01/19 14:09:10;;;;;;;1.73;0.90;;;4.60;99.90;;;;;;5044102;28;20241;-85
2021/01/19 14:11:38;;;;;;;2.70;1.33;;;4.60;99.90;;;;;;5046769;28;20211;-86
2021/01/19 14:14:18;;;;;;;1.85;1.50;;;4.50;99.90;;;;;;5047210;28;20215;-86
2021/01/19 14:16:45;;;;;;;2.45;1.45;;;4.50;99.90;;;;;;5046558;28;20231;-85
2021/01/19 14:19:12;;;;;;;2.22;1.58;;;4.60;99.90;;;;;;5043643;28;20357;-86
2021/01/19 14:21:38;;;;;;;1.90;1.65;;;4.60;99.90;;;;;;5050357;28;20253;-85
2021/01/19 14:24:05;;;;;;;3.38;1.15;;;4.60;99.90;;;;;;5050837;28;20230;-85
2021/01/19 14:26:32;;;;;;;1.20;1.00;;;4.60;99.90;;;;;;5050811;28;20210;-85
2021/01/19 14:29:00;;;;;;;1.67;1.58;;;4.60;99.90;;;;;;5048385;28;20599;-85
2021/01/19 14:31:34;;;;;;;1.77;1.45;;;4.60;99.90;;;;;;5050295;28;20202;-85
2021/01/19 14:34:02;;;;;;;3.72;1.30;;;4.60;99.90;;;;;;5046086;28;20213;-85
2021/01/19 14:37:27;;;;;;;0.65;0.65;;;4.50;99.90;;;;;;5046516;28;20207;-87
2021/01/19 14:43:45;;;;;;;7.18;1.17;;;4.50;99.90;;;;;;4884200;29;20608;-85
2021/01/19 14:46:48;;;;;;;1.95;0.85;;;4.60;99.90;;;;;;4817033;29;20219;-85
2021/01/19 14:49:31;;;;;;;2.80;1.50;;;4.60;99.90;;;;;;4878411;29;20284;-86
2021/01/19 14:52:03;;;;;;;2.03;1.42;;;4.60;99.90;;;;;;4982686;28;20260;-84
2021/01/19 16:23:46;;;;;;;2.05;1.13;;;4.50;99.90;;;;;;5037945;28;20219;-86
2021/01/19 16:26:43;;;;;;;0.70;0.70;;;4.60;99.90;;;;;;5024638;28;20207;-85
2021/01/19 16:32:43;;;;;;;1.38;1.27;;;4.60;99.90;;;;;;4926025;29;20281;-85
2021/01/19 16:52:34;;;;;;;1.55;1.45;;;4.40;99.90;;;;;;5021176;28;20246;-86
2021/01/19 19:20:52;;;;;;;1.40;1.30;;;5.20;99.90;;;;;;5030697;28;20219;-83
2021/01/19 19:23:24;;;;;;;1.23;1.13;;;5.20;99.90;;;;;;5038942;28;20217;-81
2021/01/19 19:25:58;;;;;;;1.20;1.10;;;5.30;99.90;;;;;;5040155;28;20243;-83
2021/01/19 19:28:27;;;;;;;1.65;1.45;;;5.20;99.90;;;;;;5039496;28;20317;-83
2021/01/19 19:31:27;;;;;;;;;;;;;;;;;;;;;
2021/01/19 19:34:01;;;;;;;1.73;1.63;;;5.20;99.90;;;;;;5038476;28;20203;-83
2021/01/19 19:36:32;;;;;;;1.85;1.55;;;5.10;99.90;;;;;;5040161;28;20212;-83
2021/01/19 19:39:33;;;;;;;1.13;1.10;;;5.00;99.90;;;;;;5038581;28;20326;-84
2021/01/19 19:42:14;;;;;;;1.38;1.25;;;5.00;99.90;;;;;;4938935;29;20595;-84
2021/01/19 19:44:52;;;;;;;1.60;1.33;;;5.00;99.90;;;;;;5018836;28;20213;-85
2021/01/19 19:50:49;;;;;;;1.65;1.38;;;4.90;99.90;;;;;;5031431;28;20565;-85
2021/01/19 19:53:20;;;;;;;1.83;1.55;;;4.80;99.90;;;;;;5039009;28;20218;-82
2021/01/19 19:55:52;;;;;;;1.10;1.00;;;4.80;99.90;;;;;;5040286;28;20204;-83
2021/01/19 20:01:11;;;;;;;1.60;1.50;;;4.80;99.90;;;;;;5030909;28;20230;-84
2021/01/19 20:03:50;;;;;;;1.92;1.83;;;4.80;99.90;;;;;;5038269;28;20211;-83
2021/01/19 20:06:31;;;;;;;1.50;1.25;;;4.80;99.90;;;;;;5038125;28;20603;-83
2021/01/19 20:09:08;;;;;;;2.28;1.50;;;4.80;99.90;;;;;;5038451;28;20242;-83
2021/01/19 20:12:14;;;;;;;1.00;1.00;;;4.90;99.90;;;;;;5038163;28;20204;-84
2021/01/19 20:14:44;;;;;;;1.35;1.25;;;4.90;99.90;;;;;;5038909;28;20204;-85
2021/01/19 20:17:20;;;;;;;1.70;1.60;;;4.90;99.90;;;;;;5037976;28;20235;-84
2021/01/19 20:19:53;;;;;;;2.03;1.63;;;4.80;99.90;;;;;;5037499;28;20234;-84
2021/01/19 20:22:30;;;;;;;1.90;1.80;;;4.80;99.90;;;;;;5039683;28;20204;-83
2021/01/19 20:24:57;;;;;;;2.13;1.92;;;4.90;99.70;;;;;;5042001;28;20593;-84
2021/01/19 20:30:46;;;;;;;1.70;1.60;;;4.80;99.70;;;;;;5015626;28;20270;-83
2021/01/19 20:33:16;;;;;;;2.15;1.80;;;4.90;99.60;;;;;;5042307;28;20264;-83
2021/01/19 20:35:42;;;;;;;1.85;1.73;;;4.90;99.40;;;;;;5046497;28;20635;-85
2021/01/19 20:38:20;;;;;;;2.30;2.08;;;4.90;99.40;;;;;;5047445;28;20301;-84
2021/01/19 20:41:00;;;;;;;4.68;2.60;;;4.80;99.30;;;;;;5045173;28;20507;-85
2021/01/19 20:43:27;;;;;;;1.83;1.65;;;4.80;99.20;;;;;;5047371;28;20231;-85